Janousek, South Dakota
Current Conditions -  °F | °C
As of 1:15 PM on Friday 21 Nov 2014 (Local Time) from KYKN Reporting Station
Clear Clear  
Wind Chill: 29°   Ceiling: Unl
Heat Index: 39°   Visibility: 10mi
Dew Point: 27°   Wind: 23mph
Humidity: 61%   Direction: 170°S
Pressure: 29.94"   Gusts: 29mph
Location:  42.9288°N, 97.7254°W
Report Text: KYKN 211915Z AUTO 17020G25KT 10SM CLR 04/M03 A2994 RMK AO1
Loading
Personal Weather Stations






























Interactive Weather Map New forecast layout! Learn more

10-Day Weather Forecast

Advertisements
Track Severe Weather on mobile